Terminal Aerodrome Forecast
Issued by NWS Charleston, WV

Current Version | Previous Version | Graphics & Text | Print | Product List | Glossary On
Versions: 1 2 3 4 5 6 7 8 9 10 11 12 13 14 15 16 17 18 19 20 21 22 23
649
FTUS41 KRLX 262336
TAFEKN
TAF
KEKN 262336Z 2700/2724 28007KT P6SM SCT050
     FM270600 VRB03KT 5SM SHRA VCTS BKN050CB
     FM271200 24009KT P6SM SHRA VCTS BKN028CB
     FM271800 28007KT P6SM SHRA VCTS BKN012CB=

USA.gov is the U.S. government's official web portal to all federal, state and local government web resources and services.